Time,TemperatureF,DewpointF,PressureIn,WindDirection,WindDirectionDegrees,WindSpeedMPH,WindSpeedGustMPH,Humidity,HourlyPrecipIn,Conditions,Clouds,dailyrainin,SoftwareType,DateUTC
2013-03-02 00:12:00,38.1,31.0,29.91,NNW,329,0.0,0.0,74,0.00,,,0.00,weatherlink.com 1.10,2013-03-02 05:12:00,
2013-03-02 00:27:00,37.9,30.0,29.91,North,355,0.0,0.0,72,0.00,,,0.00,weatherlink.com 1.10,2013-03-02 05:27:00,
2013-03-02 00:42:00,38.0,29.0,29.91,North,355,0.0,0.0,71,0.00,,,0.00,weatherlink.com 1.10,2013-03-02 05:42:00,
2013-03-02 00:57:00,37.8,30.0,29.91,North,355,0.0,0.0,72,0.00,,,0.00,weatherlink.com 1.10,2013-03-02 05:57:00,
2013-03-02 01:12:00,37.7,30.0,29.91,North,355,0.0,0.0,74,0.00,,,0.00,weatherlink.com 1.10,2013-03-02 06:12:00,
2013-03-02 01:27:00,37.2,31.0,29.91,North,355,0.0,0.0,77,0.00,,,0.00,weatherlink.com 1.10,2013-03-02 06:27:00,
2013-03-02 01:42:00,36.9,30.0,29.90,North,355,0.0,0.0,77,0.00,,,0.00,weatherlink.com 1.10,2013-03-02 06:42:00,
2013-03-02 01:57:00,36.8,31.0,29.90,North,355,0.0,0.0,79,0.00,,,0.00,weatherlink.com 1.10,2013-03-02 06:57:00,
2013-03-02 02:12:00,36.5,31.0,29.90,North,355,0.0,0.0,79,0.00,,,0.00,weatherlink.com 1.10,2013-03-02 07:12:00,
2013-03-02 02:27:00,36.4,31.0,29.90,North,355,0.0,0.0,81,0.00,,,0.00,weatherlink.com 1.10,2013-03-02 07:27:00,
2013-03-02 02:42:00,36.3,30.0,29.89,North,355,0.0,0.0,78,0.00,,,0.00,weatherlink.com 1.10,2013-03-02 07:42:00,
2013-03-02 02:57:00,36.3,31.0,29.89,North,355,0.0,0.0,80,0.00,,,0.00,weatherlink.com 1.10,2013-03-02 07:57:00,
2013-03-02 03:12:00,36.3,30.0,29.89,North,355,0.0,0.0,77,0.00,,,0.00,weatherlink.com 1.10,2013-03-02 08:12:00,
2013-03-02 03:27:00,36.7,30.0,29.89,NW,323,2.0,2.0,76,0.00,,,0.00,weatherlink.com 1.10,2013-03-02 08:27:00,
2013-03-02 03:42:00,37.5,30.0,29.89,NNW,348,0.0,3.0,74,0.00,,,0.00,weatherlink.com 1.10,2013-03-02 08:42:00,
2013-03-02 03:57:00,37.6,30.0,29.89,NW,311,0.0,3.0,74,0.00,,,0.00,weatherlink.com 1.10,2013-03-02 08:57:00,
2013-03-02 04:12:00,37.5,30.0,29.88,NW,313,1.0,4.0,75,0.00,,,0.00,weatherlink.com 1.10,2013-03-02 09:12:00,
2013-03-02 04:27:00,37.3,31.0,29.89,NNW,340,4.0,5.0,77,0.00,,,0.00,weatherlink.com 1.10,2013-03-02 09:27:00,
2013-03-02 04:43:00,37.0,31.0,29.88,NNW,335,1.0,5.0,78,0.00,,,0.00,weatherlink.com 1.10,2013-03-02 09:43:00,
2013-03-02 04:58:00,36.8,31.0,29.88,NW,316,0.0,3.0,79,0.00,,,0.00,weatherlink.com 1.10,2013-03-02 09:58:00,
2013-03-02 05:28:00,36.4,31.0,29.89,NW,304,1.0,3.0,81,0.00,,,0.00,weatherlink.com 1.10,2013-03-02 10:28:00,
2013-03-02 05:43:00,36.1,31.0,29.89,NW,319,3.0,4.0,83,0.00,,,0.00,weatherlink.com 1.10,2013-03-02 10:43:00,
2013-03-02 05:58:00,35.8,31.0,29.89,NNW,327,1.0,2.0,84,0.00,,,0.00,weatherlink.com 1.10,2013-03-02 10:58:00,
2013-03-02 06:13:00,35.5,31.0,29.89,NNW,327,0.0,2.0,85,0.00,,,0.00,weatherlink.com 1.10,2013-03-02 11:13:00,
2013-03-02 06:28:00,35.3,32.0,29.89,NNW,331,2.0,4.0,87,0.00,,,0.00,weatherlink.com 1.10,2013-03-02 11:28:00,
2013-03-02 06:43:00,35.0,32.0,29.89,NW,313,2.0,5.0,87,0.00,,,0.00,weatherlink.com 1.10,2013-03-02 11:43:00,
2013-03-02 06:58:00,34.9,32.0,29.89,NNW,330,2.0,4.0,88,0.00,,,0.00,weatherlink.com 1.10,2013-03-02 11:58:00,
2013-03-02 07:13:00,34.9,32.0,29.89,WNW,284,4.0,4.0,88,0.00,,,0.00,weatherlink.com 1.10,2013-03-02 12:13:00,
2013-03-02 07:28:00,34.7,32.0,29.90,NW,306,0.0,2.0,89,0.01,,,0.01,weatherlink.com 1.10,2013-03-02 12:28:00,
2013-03-02 07:43:00,34.5,32.0,29.90,NW,315,1.0,3.0,89,0.01,,,0.01,weatherlink.com 1.10,2013-03-02 12:43:00,
2013-03-02 07:58:00,34.4,32.0,29.90,WNW,284,1.0,2.0,90,0.01,,,0.01,weatherlink.com 1.10,2013-03-02 12:58:00,
2013-03-02 08:13:00,34.3,32.0,29.90,SW,234,1.0,3.0,90,0.01,,,0.01,weatherlink.com 1.10,2013-03-02 13:13:00,
2013-03-02 08:28:00,34.4,32.0,29.91,SW,234,0.0,1.0,91,0.00,,,0.01,weatherlink.com 1.10,2013-03-02 13:28:00,
2013-03-02 08:43:00,34.7,32.0,29.90,SW,234,0.0,0.0,90,0.00,,,0.01,weatherlink.com 1.10,2013-03-02 13:43:00,
2013-03-02 08:58:00,35.0,32.0,29.90,SSE,167,0.0,1.0,90,0.00,,,0.01,weatherlink.com 1.10,2013-03-02 13:58:00,
2013-03-02 09:13:00,35.6,33.0,29.90,West,267,3.0,3.0,90,0.00,,,0.01,weatherlink.com 1.10,2013-03-02 14:13:00,
2013-03-02 09:28:00,35.7,33.0,29.90,West,273,1.0,4.0,89,0.00,,,0.01,weatherlink.com 1.10,2013-03-02 14:28:00,
2013-03-02 09:43:00,36.5,34.0,29.90,West,281,0.0,3.0,90,0.00,,,0.01,weatherlink.com 1.10,2013-03-02 14:43:00,
2013-03-02 09:58:00,37.3,34.0,29.89,South,178,0.0,4.0,88,0.00,,,0.01,weatherlink.com 1.10,2013-03-02 14:58:00,
2013-03-02 10:13:00,37.0,33.0,29.89,SW,232,3.0,4.0,86,0.00,,,0.01,weatherlink.com 1.10,2013-03-02 15:13:00,
2013-03-02 10:28:00,38.3,34.0,29.89,SSE,167,1.0,5.0,85,0.00,,,0.01,weatherlink.com 1.10,2013-03-02 15:28:00,
2013-03-02 10:43:00,40.3,34.0,29.88,SE,130,1.0,5.0,79,0.00,,,0.01,weatherlink.com 1.10,2013-03-02 15:43:00,
2013-03-02 10:58:00,41.4,33.0,29.88,West,265,0.0,6.0,72,0.00,,,0.01,weatherlink.com 1.10,2013-03-02 15:58:00,
2013-03-02 11:13:00,40.7,33.0,29.88,SSW,192,1.0,11.0,73,0.00,,,0.01,weatherlink.com 1.10,2013-03-02 16:13:00,
2013-03-02 11:28:00,40.9,33.0,29.88,West,279,1.0,6.0,73,0.00,,,0.01,weatherlink.com 1.10,2013-03-02 16:28:00,
2013-03-02 11:43:00,41.2,33.0,29.88,SSW,205,3.0,7.0,73,0.00,,,0.01,weatherlink.com 1.10,2013-03-02 16:43:00,
2013-03-02 11:58:00,41.5,31.0,29.87,SW,220,0.0,6.0,67,0.00,,,0.01,weatherlink.com 1.10,2013-03-02 16:58:00,
2013-03-02 12:13:00,41.4,33.0,29.87,South,191,3.0,6.0,72,0.00,,,0.01,weatherlink.com 1.10,2013-03-02 17:13:00,
2013-03-02 12:28:00,42.9,33.0,29.86,SW,225,3.0,4.0,69,0.00,,,0.01,weatherlink.com 1.10,2013-03-02 17:28:00,
2013-03-02 12:43:00,42.8,31.0,29.86,NE,34,4.0,6.0,63,0.00,,,0.01,weatherlink.com 1.10,2013-03-02 17:43:00,
2013-03-02 12:58:00,42.2,30.0,29.85,NE,55,1.0,5.0,63,0.00,,,0.01,weatherlink.com 1.10,2013-03-02 17:58:00,
2013-03-02 13:13:00,41.9,30.0,29.84,NW,326,0.0,4.0,64,0.00,,,0.01,weatherlink.com 1.10,2013-03-02 18:13:00,
2013-03-02 13:28:00,42.0,30.0,29.84,NNE,14,2.0,4.0,63,0.00,,,0.01,weatherlink.com 1.10,2013-03-02 18:28:00,
2013-03-02 13:43:00,42.9,32.0,29.84,West,264,2.0,5.0,65,0.00,,,0.01,weatherlink.com 1.10,2013-03-02 18:43:00,
2013-03-02 13:58:00,42.6,29.0,29.84,NE,37,6.0,9.0,59,0.00,,,0.01,weatherlink.com 1.10,2013-03-02 18:58:00,
2013-03-02 14:13:00,42.4,30.0,29.83,East,95,3.0,7.0,62,0.00,,,0.01,weatherlink.com 1.10,2013-03-02 19:13:00,
2013-03-02 14:28:00,42.3,30.0,29.83,ENE,67,2.0,6.0,61,0.00,,,0.01,weatherlink.com 1.10,2013-03-02 19:28:00,
2013-03-02 14:43:00,42.8,29.0,29.83,East,84,0.0,4.0,58,0.00,,,0.01,weatherlink.com 1.10,2013-03-02 19:43:00,
2013-03-02 14:59:00,45.2,30.0,29.82,NE,38,3.0,4.0,56,0.00,,,0.01,weatherlink.com 1.10,2013-03-02 19:59:00,
2013-03-02 15:14:00,46.8,29.0,29.82,WSW,240,0.0,4.0,51,0.00,,,0.01,weatherlink.com 1.10,2013-03-02 20:14:00,
2013-03-02 15:29:00,45.9,29.0,29.82,WSW,246,2.0,6.0,51,0.00,,,0.01,weatherlink.com 1.10,2013-03-02 20:29:00,
2013-03-02 15:44:00,44.8,28.0,29.83,East,84,3.0,12.0,52,0.00,,,0.01,weatherlink.com 1.10,2013-03-02 20:44:00,
2013-03-02 15:59:00,43.5,27.0,29.83,North,5,3.0,11.0,52,0.00,,,0.01,weatherlink.com 1.10,2013-03-02 20:59:00,
2013-03-02 16:14:00,42.7,26.0,29.84,NW,321,4.0,10.0,53,0.00,,,0.01,weatherlink.com 1.10,2013-03-02 21:14:00,
2013-03-02 16:29:00,42.9,27.0,29.84,NNW,346,5.0,8.0,53,0.00,,,0.01,weatherlink.com 1.10,2013-03-02 21:29:00,
2013-03-02 16:44:00,42.9,27.0,29.84,NNW,344,3.0,7.0,53,0.00,,,0.01,weatherlink.com 1.10,2013-03-02 21:44:00,
2013-03-02 16:59:00,42.6,25.0,29.85,NNE,24,4.0,7.0,51,0.00,,,0.01,weatherlink.com 1.10,2013-03-02 21:59:00,
2013-03-02 17:14:00,42.7,26.0,29.85,NW,321,2.0,7.0,51,0.00,,,0.01,weatherlink.com 1.10,2013-03-02 22:14:00,
2013-03-02 17:29:00,42.2,26.0,29.86,North,11,8.0,11.0,53,0.01,,,0.02,weatherlink.com 1.10,2013-03-02 22:29:00,
2013-03-02 17:44:00,41.5,26.0,29.86,NNE,13,9.0,11.0,55,0.01,,,0.02,weatherlink.com 1.10,2013-03-02 22:44:00,
2013-03-02 17:59:00,40.9,26.0,29.87,NNW,345,2.0,11.0,55,0.01,,,0.02,weatherlink.com 1.10,2013-03-02 22:59:00,
2013-03-02 18:14:00,39.9,26.0,29.87,NW,318,3.0,7.0,57,0.01,,,0.02,weatherlink.com 1.10,2013-03-02 23:14:00,
2013-03-02 18:29:00,39.0,25.0,29.88,NE,42,0.0,7.0,57,0.00,,,0.02,weatherlink.com 1.10,2013-03-02 23:29:00,
2013-03-02 18:44:00,38.4,25.0,29.89,NNW,336,2.0,6.0,58,0.00,,,0.02,weatherlink.com 1.10,2013-03-02 23:44:00,
2013-03-02 18:59:00,37.7,25.0,29.89,NW,323,0.0,3.0,60,0.00,,,0.02,weatherlink.com 1.10,2013-03-02 23:59:00,
2013-03-02 19:14:00,37.4,24.0,29.90,NW,323,3.0,5.0,60,0.00,,,0.02,weatherlink.com 1.10,2013-03-03 00:14:00,
2013-03-02 19:29:00,37.3,24.0,29.90,NW,319,3.0,6.0,59,0.00,,,0.02,weatherlink.com 1.10,2013-03-03 00:29:00,
2013-03-02 19:44:00,36.8,24.0,29.90,North,11,2.0,6.0,59,0.00,,,0.02,weatherlink.com 1.10,2013-03-03 00:44:00,
2013-03-02 19:59:00,36.3,23.0,29.91,North,360,1.0,6.0,60,0.00,,,0.02,weatherlink.com 1.10,2013-03-03 00:59:00,
2013-03-02 20:14:00,35.8,23.0,29.91,North,360,0.0,4.0,60,0.00,,,0.02,weatherlink.com 1.10,2013-03-03 01:14:00,
2013-03-02 20:29:00,35.2,23.0,29.91,NW,323,1.0,4.0,61,0.00,,,0.02,weatherlink.com 1.10,2013-03-03 01:29:00,
2013-03-02 20:44:00,34.6,23.0,29.92,North,350,1.0,3.0,62,0.00,,,0.02,weatherlink.com 1.10,2013-03-03 01:44:00,
2013-03-02 20:59:00,33.8,22.0,29.92,NW,313,0.0,2.0,63,0.00,,,0.02,weatherlink.com 1.10,2013-03-03 01:59:00,
2013-03-02 21:14:00,33.1,22.0,29.93,NW,313,0.0,1.0,65,0.00,,,0.02,weatherlink.com 1.10,2013-03-03 02:14:00,
2013-03-02 21:29:00,32.5,22.0,29.93,NW,309,0.0,2.0,66,0.00,,,0.02,weatherlink.com 1.10,2013-03-03 02:29:00,
2013-03-02 21:44:00,31.8,22.0,29.94,NW,309,0.0,2.0,67,0.00,,,0.02,weatherlink.com 1.10,2013-03-03 02:44:00,
2013-03-02 21:59:00,30.5,22.0,29.94,NW,309,0.0,0.0,72,0.00,,,0.02,weatherlink.com 1.10,2013-03-03 02:59:00,
2013-03-02 22:14:00,29.4,22.0,29.94,NW,309,0.0,0.0,74,0.00,,,0.02,weatherlink.com 1.10,2013-03-03 03:14:00,
2013-03-02 22:30:00,31.1,22.0,29.94,NNW,339,0.0,4.0,69,0.00,,,0.02,weatherlink.com 1.10,2013-03-03 03:30:00,
2013-03-02 22:44:00,32.4,22.0,29.94,NNW,340,4.0,5.0,65,0.00,,,0.02,weatherlink.com 1.10,2013-03-03 03:44:00,
2013-03-02 22:59:00,32.1,21.0,29.94,North,9,1.0,4.0,65,0.00,,,0.02,weatherlink.com 1.10,2013-03-03 03:59:00,
2013-03-02 23:14:00,31.5,21.0,29.94,NW,314,0.0,2.0,66,0.00,,,0.02,weatherlink.com 1.10,2013-03-03 04:14:00,
2013-03-02 23:29:00,31.2,21.0,29.94,North,350,4.0,4.0,66,0.00,,,0.02,weatherlink.com 1.10,2013-03-03 04:29:00,
2013-03-02 23:44:00,31.0,21.0,29.94,NNW,337,1.0,3.0,67,0.00,,,0.02,weatherlink.com 1.10,2013-03-03 04:44:00,
2013-03-02 23:59:00,30.6,21.0,29.94,NNW,348,0.0,3.0,67,0.00,,,0.02,weatherlink.com 1.10,2013-03-03 04:59:00,